Time,TemperatureF,DewpointF,PressureIn,WindDirection,WindDirectionDegrees,WindSpeedMPH,WindSpeedGustMPH,Humidity,HourlyPrecipIn,Conditions,Clouds,dailyrainin,SoftwareType,DateUTC
2013-10-02 00:01:00,70.5,61.2,30.06,South,180,1.1,4.0,72,0.02,,,0.00,WUHU21623XXSP,2013-10-02 05:01:00,
2013-10-02 00:06:00,70.5,61.2,30.06,South,180,1.5,4.0,72,0.02,,,0.00,WUHU21623XXSP,2013-10-02 05:06:00,
2013-10-02 00:11:00,70.5,61.2,30.06,South,180,0.6,2.2,72,0.02,,,0.00,WUHU21623XXSP,2013-10-02 05:11:00,
2013-10-02 00:16:00,70.5,61.2,30.06,SSW,202,0.9,2.0,72,0.00,,,0.00,WUHU21623XXSP,2013-10-02 05:16:00,
2013-10-02 00:21:00,70.3,61.0,30.06,South,180,0.9,2.0,72,0.00,,,0.00,WUHU21623XXSP,2013-10-02 05:21:00,
2013-10-02 00:26:00,70.3,61.0,30.06,South,180,1.5,2.7,72,0.00,,,0.00,WUHU21623XXSP,2013-10-02 05:26:00,
2013-10-02 00:31:00,70.3,61.0,30.06,South,180,1.4,2.7,72,0.00,,,0.00,WUHU21623XXSP,2013-10-02 05:31:00,
2013-10-02 00:36:00,70.3,61.0,30.06,South,175,1.5,3.6,72,0.00,,,0.00,WUHU21623XXSP,2013-10-02 05:36:00,
2013-10-02 00:41:00,70.3,61.0,30.06,SSE,157,1.8,3.6,72,0.00,,,0.00,WUHU21623XXSP,2013-10-02 05:41:00,
2013-10-02 00:46:00,70.3,61.0,30.06,South,188,1.2,3.6,72,0.00,,,0.00,WUHU21623XXSP,2013-10-02 05:46:00,
2013-10-02 00:51:00,70.3,61.0,30.06,South,174,1.6,3.6,72,0.00,,,0.00,WUHU21623XXSP,2013-10-02 05:51:00,
2013-10-02 00:56:00,70.2,60.9,30.06,South,188,2.5,4.9,72,0.00,,,0.00,WUHU21623XXSP,2013-10-02 05:56:00,
2013-10-02 01:01:00,70.2,60.9,30.06,SSW,202,0.0,4.9,72,0.00,,,0.00,WUHU21623XXSP,2013-10-02 06:01:00,
2013-10-02 01:06:00,70.2,61.3,30.06,South,180,1.4,3.1,73,0.00,,,0.00,WUHU21623XXSP,2013-10-02 06:06:00,
2013-10-02 01:11:00,70.0,61.1,30.06,South,180,1.6,3.1,73,0.00,,,0.00,WUHU21623XXSP,2013-10-02 06:11:00,
2013-10-02 01:16:00,70.0,61.1,30.06,South,178,1.7,3.1,73,0.00,,,0.00,WUHU21623XXSP,2013-10-02 06:16:00,
2013-10-02 01:21:00,70.0,61.1,30.06,SSE,157,2.0,5.1,73,0.00,,,0.00,WUHU21623XXSP,2013-10-02 06:21:00,
2013-10-02 01:26:00,70.0,60.7,30.06,South,180,1.3,5.1,72,0.00,,,0.00,WUHU21623XXSP,2013-10-02 06:26:00,
2013-10-02 01:31:00,70.0,61.1,30.06,SSW,202,0.8,3.1,73,0.00,,,0.00,WUHU21623XXSP,2013-10-02 06:31:00,
2013-10-02 01:36:00,70.0,61.1,30.06,South,180,1.6,3.6,73,0.00,,,0.00,WUHU21623XXSP,2013-10-02 06:36:00,
2013-10-02 01:41:00,70.0,61.1,30.06,South,180,0.6,3.6,73,0.00,,,0.00,WUHU21623XXSP,2013-10-02 06:41:00,
2013-10-02 01:46:00,70.0,61.1,30.06,South,180,3.1,4.9,73,0.00,,,0.00,WUHU21623XXSP,2013-10-02 06:46:00,
2013-10-02 01:51:00,70.0,61.1,30.07,South,180,1.8,4.9,73,0.00,,,0.00,WUHU21623XXSP,2013-10-02 06:51:00,
2013-10-02 01:56:00,70.0,61.1,30.06,South,175,1.2,2.9,73,0.00,,,0.00,WUHU21623XXSP,2013-10-02 06:56:00,
2013-10-02 02:01:00,69.8,60.9,30.06,South,180,1.6,3.4,73,0.00,,,0.00,WUHU21623XXSP,2013-10-02 07:01:00,
2013-10-02 02:06:00,69.8,60.9,30.06,South,174,2.1,4.0,73,0.00,,,0.00,WUHU21623XXSP,2013-10-02 07:06:00,
2013-10-02 02:11:00,70.0,61.1,30.06,SSW,202,2.5,5.8,73,0.00,,,0.00,WUHU21623XXSP,2013-10-02 07:11:00,
2013-10-02 02:17:00,70.0,61.1,30.06,South,180,3.4,5.8,73,0.00,,,0.00,WUHU21623XXSP,2013-10-02 07:17:00,
2013-10-02 02:22:00,70.0,61.1,30.06,South,180,1.2,4.5,73,0.00,,,0.00,WUHU21623XXSP,2013-10-02 07:22:00,
2013-10-02 02:27:00,70.0,61.1,30.06,South,180,1.4,3.4,73,0.00,,,0.00,WUHU21623XXSP,2013-10-02 07:27:00,
2013-10-02 02:32:00,70.0,61.1,30.06,SSW,194,2.0,2.9,73,0.00,,,0.00,WUHU21623XXSP,2013-10-02 07:32:00,
2013-10-02 02:37:00,70.0,61.1,30.06,South,179,2.4,3.6,73,0.00,,,0.00,WUHU21623XXSP,2013-10-02 07:37:00,
2013-10-02 02:42:00,70.2,61.3,30.06,SSW,202,1.6,3.6,73,0.00,,,0.00,WUHU21623XXSP,2013-10-02 07:42:00,
2013-10-02 02:47:00,70.2,61.3,30.06,South,180,2.7,3.1,73,0.00,,,0.00,WUHU21623XXSP,2013-10-02 07:47:00,
2013-10-02 02:52:00,70.2,61.3,30.06,South,180,2.7,3.1,73,0.00,,,0.00,WUHU21623XXSP,2013-10-02 07:52:00,
2013-10-02 02:57:00,70.2,61.3,30.06,South,180,2.7,3.1,73,0.00,,,0.00,WUHU21623XXSP,2013-10-02 07:57:00,
2013-10-02 03:02:00,70.2,61.3,30.06,South,186,2.9,4.9,73,0.00,,,0.00,WUHU21623XXSP,2013-10-02 08:02:00,
2013-10-02 03:07:00,70.2,61.3,30.06,SSE,162,2.2,4.9,73,0.00,,,0.00,WUHU21623XXSP,2013-10-02 08:07:00,
2013-10-02 03:12:00,70.0,61.1,30.06,South,180,1.1,4.3,73,0.00,,,0.00,WUHU21623XXSP,2013-10-02 08:12:00,
2013-10-02 03:17:00,70.0,61.1,30.06,South,186,1.2,4.0,73,0.00,,,0.00,WUHU21623XXSP,2013-10-02 08:17:00,
2013-10-02 03:22:00,70.0,61.1,30.06,SSE,157,3.4,4.7,73,0.00,,,0.00,WUHU21623XXSP,2013-10-02 08:22:00,
2013-10-02 03:27:00,69.6,60.7,30.06,South,180,1.9,4.7,73,0.00,,,0.00,WUHU21623XXSP,2013-10-02 08:27:00,
2013-10-02 03:32:00,69.6,60.7,30.06,South,180,1.3,2.7,73,0.00,,,0.00,WUHU21623XXSP,2013-10-02 08:32:00,
2013-10-02 03:37:00,69.6,60.7,30.06,South,176,2.0,3.4,73,0.00,,,0.00,WUHU21623XXSP,2013-10-02 08:37:00,
2013-10-02 03:42:00,69.6,60.7,30.06,South,184,1.8,4.3,73,0.00,,,0.00,WUHU21623XXSP,2013-10-02 08:42:00,
2013-10-02 03:47:00,69.6,60.7,30.06,SSE,157,0.8,4.3,73,0.00,,,0.00,WUHU21623XXSP,2013-10-02 08:47:00,
2013-10-02 03:52:00,69.6,60.7,30.06,SSE,168,1.5,3.4,73,0.00,,,0.00,WUHU21623XXSP,2013-10-02 08:52:00,
2013-10-02 03:57:00,69.6,60.7,30.06,South,180,1.2,2.2,73,0.00,,,0.00,WUHU21623XXSP,2013-10-02 08:57:00,
2013-10-02 04:02:00,69.6,60.7,30.06,SSE,157,0.0,2.2,73,0.00,,,0.00,WUHU21623XXSP,2013-10-02 09:02:00,
2013-10-02 04:07:00,69.4,60.5,30.06,South,180,2.2,4.0,73,0.00,,,0.00,WUHU21623XXSP,2013-10-02 09:07:00,
2013-10-02 04:12:00,69.4,60.5,30.06,South,180,1.6,4.0,73,0.00,,,0.00,WUHU21623XXSP,2013-10-02 09:12:00,
2013-10-02 04:17:00,69.4,60.5,30.06,SSE,168,1.6,4.0,73,0.00,,,0.00,WUHU21623XXSP,2013-10-02 09:17:00,
2013-10-02 04:22:00,69.6,60.7,30.06,South,178,2.0,3.8,73,0.00,,,0.00,WUHU21623XXSP,2013-10-02 09:22:00,
2013-10-02 04:27:00,69.6,60.7,30.06,South,180,1.8,3.8,73,0.00,,,0.00,WUHU21623XXSP,2013-10-02 09:27:00,
2013-10-02 04:32:00,69.6,60.7,30.06,South,180,1.1,1.8,73,0.00,,,0.00,WUHU21623XXSP,2013-10-02 09:32:00,
2013-10-02 04:37:00,69.6,60.7,30.06,South,180,1.0,2.7,73,0.00,,,0.00,WUHU21623XXSP,2013-10-02 09:37:00,
2013-10-02 04:42:00,69.4,60.5,30.07,South,180,0.4,2.7,73,0.00,,,0.00,WUHU21623XXSP,2013-10-02 09:42:00,
2013-10-02 04:47:00,69.4,60.5,30.07,SSE,157,0.9,2.7,73,0.00,,,0.00,WUHU21623XXSP,2013-10-02 09:47:00,
2013-10-02 04:52:00,69.4,60.5,30.07,South,180,1.1,1.8,73,0.00,,,0.00,WUHU21623XXSP,2013-10-02 09:52:00,
2013-10-02 04:57:00,69.4,60.5,30.07,South,177,1.6,3.1,73,0.00,,,0.00,WUHU21623XXSP,2013-10-02 09:57:00,
2013-10-02 05:02:00,69.4,60.5,30.07,SSE,157,2.0,3.1,73,0.00,,,0.00,WUHU21623XXSP,2013-10-02 10:02:00,
2013-10-02 05:07:00,69.4,60.5,30.07,SSE,157,0.8,3.1,73,0.00,,,0.00,WUHU21623XXSP,2013-10-02 10:07:00,
2013-10-02 05:12:00,69.4,60.5,30.08,South,180,0.2,3.1,73,0.00,,,0.00,WUHU21623XXSP,2013-10-02 10:12:00,
2013-10-02 05:17:00,69.4,60.5,30.08,SSE,157,0.0,0.9,73,0.00,,,0.00,WUHU21623XXSP,2013-10-02 10:17:00,
2013-10-02 05:22:00,69.4,60.5,30.08,South,180,0.0,1.3,73,0.00,,,0.00,WUHU21623XXSP,2013-10-02 10:22:00,
2013-10-02 05:27:00,69.4,60.5,30.08,South,171,1.2,1.8,73,0.00,,,0.00,WUHU21623XXSP,2013-10-02 10:27:00,
2013-10-02 05:32:00,69.4,60.5,30.08,SSE,157,0.0,1.8,73,0.00,,,0.00,WUHU21623XXSP,2013-10-02 10:32:00,
2013-10-02 05:37:00,69.4,60.5,30.08,South,177,2.7,3.6,73,0.00,,,0.00,WUHU21623XXSP,2013-10-02 10:37:00,
2013-10-02 05:42:00,69.4,60.5,30.08,South,180,1.8,4.0,73,0.00,,,0.00,WUHU21623XXSP,2013-10-02 10:42:00,
2013-10-02 05:47:00,69.4,60.5,30.08,South,191,1.6,4.0,73,0.00,,,0.00,WUHU21623XXSP,2013-10-02 10:47:00,
2013-10-02 05:52:00,69.4,60.5,30.08,South,191,1.2,3.1,73,0.00,,,0.00,WUHU21623XXSP,2013-10-02 10:52:00,
2013-10-02 05:57:00,69.4,60.5,30.08,South,183,1.4,3.8,73,0.00,,,0.00,WUHU21623XXSP,2013-10-02 10:57:00,
2013-10-02 06:02:00,69.6,60.7,30.08,SSW,196,1.7,3.8,73,0.00,,,0.00,WUHU21623XXSP,2013-10-02 11:02:00,
2013-10-02 06:07:00,69.6,60.7,30.09,South,189,1.3,3.8,73,0.00,,,0.00,WUHU21623XXSP,2013-10-02 11:07:00,
2013-10-02 06:12:00,69.6,60.7,30.08,South,180,0.9,2.5,73,0.00,,,0.00,WUHU21623XXSP,2013-10-02 11:12:00,
2013-10-02 06:17:00,69.6,60.7,30.09,SSW,202,1.8,2.5,73,0.00,,,0.00,WUHU21623XXSP,2013-10-02 11:17:00,
2013-10-02 06:22:00,69.6,60.7,30.09,SSW,202,0.9,2.5,73,0.00,,,0.00,WUHU21623XXSP,2013-10-02 11:22:00,
2013-10-02 06:27:00,69.6,60.7,30.09,SSW,195,1.3,3.1,73,0.00,,,0.00,WUHU21623XXSP,2013-10-02 11:27:00,
2013-10-02 06:32:00,69.6,60.7,30.09,South,180,3.1,3.6,73,0.00,,,0.00,WUHU21623XXSP,2013-10-02 11:32:00,
2013-10-02 06:37:00,69.6,60.7,30.10,SSW,192,1.5,3.6,73,0.00,,,0.00,WUHU21623XXSP,2013-10-02 11:37:00,
2013-10-02 06:42:00,69.6,60.7,30.09,SSW,194,1.5,3.1,73,0.00,,,0.00,WUHU21623XXSP,2013-10-02 11:42:00,
2013-10-02 06:47:00,69.8,60.9,30.10,SSW,202,1.6,3.1,73,0.00,,,0.00,WUHU21623XXSP,2013-10-02 11:47:00,
2013-10-02 06:52:00,70.0,61.1,30.10,South,187,1.2,1.8,73,0.00,,,0.00,WUHU21623XXSP,2013-10-02 11:52:00,
2013-10-02 06:57:00,70.0,61.5,30.09,SSW,202,1.6,2.5,74,0.00,,,0.00,WUHU21623XXSP,2013-10-02 11:57:00,
2013-10-02 07:02:00,70.0,61.5,30.10,SSW,195,2.0,2.9,74,0.00,,,0.00,WUHU21623XXSP,2013-10-02 12:02:00,
2013-10-02 07:07:00,70.0,61.5,30.10,SSW,194,1.3,4.5,74,0.00,,,0.00,WUHU21623XXSP,2013-10-02 12:07:00,
2013-10-02 07:12:00,70.0,61.5,30.10,SSW,194,2.8,4.7,74,0.00,,,0.00,WUHU21623XXSP,2013-10-02 12:12:00,
2013-10-02 07:17:00,70.0,61.5,30.10,South,169,2.2,4.7,74,0.00,,,0.00,WUHU21623XXSP,2013-10-02 12:17:00,
2013-10-02 07:22:00,70.2,61.7,30.10,SSW,194,0.9,3.8,74,0.00,,,0.00,WUHU21623XXSP,2013-10-02 12:22:00,
2013-10-02 07:27:00,70.3,61.8,30.10,South,180,4.3,4.9,74,0.00,,,0.00,WUHU21623XXSP,2013-10-02 12:27:00,
2013-10-02 07:32:00,70.3,61.8,30.10,South,177,2.4,5.1,74,0.00,,,0.00,WUHU21623XXSP,2013-10-02 12:32:00,
2013-10-02 07:37:00,70.5,62.0,30.10,South,180,5.4,6.3,74,0.00,,,0.00,WUHU21623XXSP,2013-10-02 12:37:00,
2013-10-02 07:42:00,70.5,62.3,30.10,South,180,3.6,6.3,75,0.00,,,0.00,WUHU21623XXSP,2013-10-02 12:42:00,
2013-10-02 07:47:00,70.7,62.5,30.10,South,170,2.1,4.9,75,0.00,,,0.00,WUHU21623XXSP,2013-10-02 12:47:00,
2013-10-02 07:52:00,70.9,62.7,30.10,South,180,4.0,5.1,75,0.00,,,0.00,WUHU21623XXSP,2013-10-02 12:52:00,
2013-10-02 07:57:00,71.2,63.0,30.10,South,188,2.1,5.1,75,0.00,,,0.00,WUHU21623XXSP,2013-10-02 12:57:00,
2013-10-02 08:02:00,71.2,63.0,30.10,South,180,3.4,4.9,75,0.00,,,0.00,WUHU21623XXSP,2013-10-02 13:02:00,
2013-10-02 08:07:00,71.4,63.6,30.10,South,180,3.8,6.3,76,0.00,,,0.00,WUHU21623XXSP,2013-10-02 13:07:00,
2013-10-02 08:12:00,71.8,64.0,30.10,SSE,168,2.1,6.3,76,0.00,,,0.00,WUHU21623XXSP,2013-10-02 13:12:00,
2013-10-02 08:17:00,72.0,64.2,30.10,South,179,5.0,6.7,76,0.00,,,0.00,WUHU21623XXSP,2013-10-02 13:17:00,
2013-10-02 08:22:00,72.3,64.8,30.11,South,173,2.2,6.7,77,0.00,,,0.00,WUHU21623XXSP,2013-10-02 13:22:00,
2013-10-02 08:27:00,72.5,65.0,30.11,SSW,202,2.5,4.9,77,0.00,,,0.00,WUHU21623XXSP,2013-10-02 13:27:00,
2013-10-02 08:32:00,72.9,65.4,30.11,South,180,1.3,4.9,77,0.00,,,0.00,WUHU21623XXSP,2013-10-02 13:32:00,
2013-10-02 08:37:00,73.0,65.5,30.11,South,180,3.6,4.9,77,0.00,,,0.00,WUHU21623XXSP,2013-10-02 13:37:00,
2013-10-02 08:42:00,73.2,66.0,30.12,South,180,1.1,5.4,78,0.00,,,0.00,WUHU21623XXSP,2013-10-02 13:42:00,
2013-10-02 08:47:00,73.4,66.2,30.12,SSW,202,3.6,6.7,78,0.00,,,0.00,WUHU21623XXSP,2013-10-02 13:47:00,
2013-10-02 08:52:00,73.6,66.4,30.11,South,180,4.7,7.2,78,0.00,,,0.00,WUHU21623XXSP,2013-10-02 13:52:00,
2013-10-02 08:57:00,73.8,66.6,30.12,South,183,3.6,7.2,78,0.00,,,0.00,WUHU21623XXSP,2013-10-02 13:57:00,
2013-10-02 09:02:00,73.9,67.1,30.11,South,182,3.6,6.5,79,0.00,,,0.00,WUHU21623XXSP,2013-10-02 14:02:00,
2013-10-02 09:07:00,74.1,67.3,30.11,SSW,202,3.1,7.8,79,0.00,,,0.00,WUHU21623XXSP,2013-10-02 14:07:00,
2013-10-02 09:12:00,74.3,67.5,30.11,South,180,3.6,7.8,79,0.00,,,0.00,WUHU21623XXSP,2013-10-02 14:12:00,
2013-10-02 09:17:00,74.8,68.0,30.11,SSW,194,2.3,6.9,79,0.00,,,0.00,WUHU21623XXSP,2013-10-02 14:17:00,
2013-10-02 09:22:00,75.4,68.2,30.11,SSW,198,5.5,9.6,78,0.00,,,0.00,WUHU21623XXSP,2013-10-02 14:22:00,
2013-10-02 09:27:00,75.7,68.5,30.11,SSW,200,4.7,9.6,78,0.00,,,0.00,WUHU21623XXSP,2013-10-02 14:27:00,
2013-10-02 09:32:00,76.1,68.9,30.11,SSW,202,8.9,9.2,78,0.00,,,0.00,WUHU21623XXSP,2013-10-02 14:32:00,
2013-10-02 09:37:00,76.6,69.4,30.11,SSW,200,6.4,9.8,78,0.00,,,0.00,WUHU21623XXSP,2013-10-02 14:37:00,
2013-10-02 09:42:00,77.2,69.9,30.11,SSW,196,1.8,9.8,78,0.00,,,0.00,WUHU21623XXSP,2013-10-02 14:42:00,
2013-10-02 09:47:00,78.1,70.8,30.11,SSW,201,5.7,7.6,78,0.00,,,0.00,WUHU21623XXSP,2013-10-02 14:47:00,
2013-10-02 09:52:00,78.6,70.9,30.11,SW,225,8.1,8.1,77,0.00,,,0.00,WUHU21623XXSP,2013-10-02 14:52:00,
2013-10-02 09:57:00,79.2,71.5,30.11,SSE,157,6.3,8.1,77,0.00,,,0.00,WUHU21623XXSP,2013-10-02 14:57:00,
2013-10-02 10:02:00,79.7,71.6,30.11,SSW,192,6.1,8.5,76,0.00,,,0.00,WUHU21623XXSP,2013-10-02 15:02:00,
2013-10-02 10:07:00,80.2,72.1,30.11,SW,225,3.8,8.5,76,0.00,,,0.00,WUHU21623XXSP,2013-10-02 15:07:00,
2013-10-02 10:12:00,81.1,73.0,30.11,SW,217,5.4,8.5,76,0.00,,,0.00,WUHU21623XXSP,2013-10-02 15:12:00,
2013-10-02 10:17:00,82.0,73.5,30.11,West,270,4.3,8.5,75,0.00,,,0.00,WUHU21623XXSP,2013-10-02 15:17:00,
2013-10-02 10:22:00,82.4,73.5,30.11,SW,225,6.2,10.7,74,0.00,,,0.00,WUHU21623XXSP,2013-10-02 15:22:00,
2013-10-02 10:27:00,82.6,73.7,30.11,SW,225,8.9,11.4,74,0.00,,,0.00,WUHU21623XXSP,2013-10-02 15:27:00,
2013-10-02 10:32:00,82.6,73.3,30.11,SW,233,6.5,11.4,73,0.00,,,0.00,WUHU21623XXSP,2013-10-02 15:32:00,
2013-10-02 10:33:00,82.4,73.1,30.11,SSW,202,6.7,11.4,73,0.00,,,0.00,WUHU21623XXSP,2013-10-02 15:33:00,
2013-10-02 10:38:00,82.6,73.3,30.11,SW,216,6.6,9.8,73,0.00,,,0.00,WUHU21623XXSP,2013-10-02 15:38:00,
2013-10-02 10:43:00,82.6,72.9,30.11,SW,223,5.3,9.6,72,0.00,,,0.00,WUHU21623XXSP,2013-10-02 15:43:00,
2013-10-02 10:48:00,82.6,73.3,30.11,SW,225,4.5,8.7,73,0.00,,,0.00,WUHU21623XXSP,2013-10-02 15:48:00,
2013-10-02 10:53:00,82.8,73.1,30.11,SW,225,3.6,10.1,72,0.00,,,0.00,WUHU21623XXSP,2013-10-02 15:53:00,
2013-10-02 10:58:00,82.8,73.1,30.11,SW,219,5.3,10.1,72,0.00,,,0.00,WUHU21623XXSP,2013-10-02 15:58:00,
2013-10-02 11:03:00,82.8,72.7,30.11,SSW,211,5.9,8.5,71,0.00,,,0.00,WUHU21623XXSP,2013-10-02 16:03:00,
2013-10-02 11:08:00,82.6,72.5,30.11,SW,233,4.7,7.4,71,0.00,,,0.00,WUHU21623XXSP,2013-10-02 16:08:00,
2013-10-02 11:13:00,82.2,72.1,30.12,SW,227,8.2,12.1,71,0.00,,,0.00,WUHU21623XXSP,2013-10-02 16:13:00,
2013-10-02 11:18:00,82.0,71.9,30.11,SW,227,5.3,12.1,71,0.00,,,0.00,WUHU21623XXSP,2013-10-02 16:18:00,
2013-10-02 11:23:00,81.7,72.0,30.11,SW,230,4.7,8.7,72,0.00,,,0.00,WUHU21623XXSP,2013-10-02 16:23:00,
2013-10-02 11:28:00,81.5,71.8,30.11,WSW,247,5.6,6.9,72,0.00,,,0.00,WUHU21623XXSP,2013-10-02 16:28:00,
2013-10-02 11:33:00,81.3,71.6,30.11,SSW,202,7.2,7.6,72,0.00,,,0.00,WUHU21623XXSP,2013-10-02 16:33:00,
2013-10-02 11:38:00,81.0,71.3,30.11,WSW,247,8.1,9.6,72,0.00,,,0.00,WUHU21623XXSP,2013-10-02 16:38:00,
2013-10-02 11:43:00,81.0,71.3,30.11,SW,216,4.6,9.6,72,0.00,,,0.00,WUHU21623XXSP,2013-10-02 16:43:00,
2013-10-02 11:48:00,80.8,71.1,30.11,SW,225,7.1,9.2,72,0.00,,,0.00,WUHU21623XXSP,2013-10-02 16:48:00,
2013-10-02 11:53:00,80.4,70.8,30.11,SSW,213,4.2,8.7,72,0.00,,,0.00,WUHU21623XXSP,2013-10-02 16:53:00,
2013-10-02 11:58:00,80.4,70.8,30.11,SSW,212,5.7,7.4,72,0.00,,,0.00,WUHU21623XXSP,2013-10-02 16:58:00,
2013-10-02 12:03:00,80.4,70.8,30.10,SW,225,6.5,8.1,72,0.00,,,0.00,WUHU21623XXSP,2013-10-02 17:03:00,
2013-10-02 12:08:00,80.4,71.2,30.10,SSW,202,6.7,8.1,73,0.00,,,0.00,WUHU21623XXSP,2013-10-02 17:08:00,
2013-10-02 12:13:00,80.4,70.8,30.10,SW,225,4.0,8.3,72,0.00,,,0.00,WUHU21623XXSP,2013-10-02 17:13:00,
2013-10-02 12:18:00,80.4,71.2,30.10,SW,227,4.7,8.3,73,0.00,,,0.00,WUHU21623XXSP,2013-10-02 17:18:00,
2013-10-02 12:23:00,80.8,71.5,30.10,WSW,247,5.1,8.3,73,0.00,,,0.00,WUHU21623XXSP,2013-10-02 17:23:00,
2013-10-02 12:28:00,81.1,71.4,30.10,SSW,197,5.1,8.3,72,0.00,,,0.00,WUHU21623XXSP,2013-10-02 17:28:00,
2013-10-02 12:33:00,81.3,71.6,30.10,SW,219,7.2,8.7,72,0.00,,,0.00,WUHU21623XXSP,2013-10-02 17:33:00,
2013-10-02 12:38:00,81.7,72.0,30.10,SSW,211,6.1,8.7,72,0.00,,,0.00,WUHU21623XXSP,2013-10-02 17:38:00,
2013-10-02 12:43:00,82.2,72.1,30.09,SW,219,6.7,10.1,71,0.00,,,0.00,WUHU21623XXSP,2013-10-02 17:43:00,
2013-10-02 12:48:00,82.9,72.3,30.09,SSW,211,5.6,10.1,70,0.00,,,0.00,WUHU21623XXSP,2013-10-02 17:48:00,
2013-10-02 12:53:00,83.3,73.1,30.10,WSW,243,5.8,8.3,71,0.00,,,0.00,WUHU21623XXSP,2013-10-02 17:53:00,
2013-10-02 12:58:00,84.4,73.8,30.09,SW,233,7.9,9.8,70,0.00,,,0.00,WUHU21623XXSP,2013-10-02 17:58:00,
2013-10-02 13:03:00,85.3,74.2,30.08,West,270,6.5,9.8,69,0.00,,,0.00,WUHU21623XXSP,2013-10-02 18:03:00,
2013-10-02 13:08:00,85.6,74.1,30.08,WSW,247,6.9,9.2,68,0.00,,,0.00,WUHU21623XXSP,2013-10-02 18:08:00,
2013-10-02 13:13:00,85.8,73.8,30.08,SW,225,5.4,11.9,67,0.00,,,0.00,WUHU21623XXSP,2013-10-02 18:13:00,
2013-10-02 13:18:00,85.8,73.4,30.08,SW,225,5.8,11.9,66,0.00,,,0.00,WUHU21623XXSP,2013-10-02 18:18:00,
2013-10-02 13:23:00,85.8,73.8,30.08,SW,225,7.5,10.5,67,0.00,,,0.00,WUHU21623XXSP,2013-10-02 18:23:00,
2013-10-02 13:28:00,86.4,74.0,30.08,SSW,202,11.6,11.6,66,0.00,,,0.00,WUHU21623XXSP,2013-10-02 18:28:00,
2013-10-02 13:33:00,86.4,72.6,30.07,SW,224,6.9,13.6,63,0.00,,,0.00,WUHU21623XXSP,2013-10-02 18:33:00,
2013-10-02 13:38:00,86.4,73.1,30.07,WSW,238,7.4,13.6,64,0.00,,,0.00,WUHU21623XXSP,2013-10-02 18:38:00,
2013-10-02 13:43:00,86.2,73.3,30.07,WSW,237,4.7,13.6,65,0.00,,,0.00,WUHU21623XXSP,2013-10-02 18:43:00,
2013-10-02 13:48:00,86.5,73.2,30.07,SW,228,7.0,11.0,64,0.00,,,0.00,WUHU21623XXSP,2013-10-02 18:48:00,
2013-10-02 13:53:00,85.8,72.0,30.07,SSW,202,7.4,11.0,63,0.00,,,0.00,WUHU21623XXSP,2013-10-02 18:53:00,
2013-10-02 13:58:00,85.6,72.3,30.06,SW,219,6.1,10.1,64,0.00,,,0.00,WUHU21623XXSP,2013-10-02 18:58:00,
2013-10-02 14:03:00,85.3,72.0,30.06,SSW,213,6.4,9.6,64,0.00,,,0.00,WUHU21623XXSP,2013-10-02 19:03:00,
2013-10-02 14:08:00,84.4,71.2,30.06,SSW,202,6.5,9.6,64,0.00,,,0.00,WUHU21623XXSP,2013-10-02 19:08:00,
2013-10-02 14:13:00,83.8,71.5,30.06,SSW,210,5.4,8.9,66,0.00,,,0.00,WUHU21623XXSP,2013-10-02 19:13:00,
2013-10-02 14:18:00,83.7,71.8,30.05,SW,225,5.8,8.9,67,0.00,,,0.00,WUHU21623XXSP,2013-10-02 19:18:00,
2013-10-02 14:23:00,83.8,71.9,30.05,SW,225,9.6,10.7,67,0.00,,,0.00,WUHU21623XXSP,2013-10-02 19:23:00,
2013-10-02 14:28:00,83.8,71.5,30.05,SSW,206,8.2,13.2,66,0.00,,,0.00,WUHU21623XXSP,2013-10-02 19:28:00,
2013-10-02 14:33:00,83.7,71.4,30.05,South,180,9.8,13.2,66,0.00,,,0.00,WUHU21623XXSP,2013-10-02 19:33:00,
2013-10-02 14:38:00,83.5,71.2,30.05,SW,225,7.2,10.7,66,0.00,,,0.00,WUHU21623XXSP,2013-10-02 19:38:00,
2013-10-02 14:43:00,83.5,71.2,30.05,SW,225,8.5,10.5,66,0.00,,,0.00,WUHU21623XXSP,2013-10-02 19:43:00,
2013-10-02 14:48:00,83.3,71.0,30.05,SW,216,8.4,14.1,66,0.00,,,0.00,WUHU21623XXSP,2013-10-02 19:48:00,
2013-10-02 14:53:00,83.1,70.8,30.05,SW,225,8.7,14.1,66,0.00,,,0.00,WUHU21623XXSP,2013-10-02 19:53:00,
2013-10-02 14:58:00,82.9,71.1,30.05,SSW,202,4.5,12.1,67,0.00,,,0.00,WUHU21623XXSP,2013-10-02 19:58:00,
2013-10-02 15:03:00,82.9,71.1,30.05,SSW,204,4.6,11.4,67,0.00,,,0.00,WUHU21623XXSP,2013-10-02 20:03:00,
2013-10-02 15:08:00,82.9,71.5,30.05,SW,225,4.7,8.3,68,0.00,,,0.00,WUHU21623XXSP,2013-10-02 20:08:00,
2013-10-02 15:13:00,82.9,71.5,30.05,SSW,202,6.5,8.3,68,0.00,,,0.00,WUHU21623XXSP,2013-10-02 20:13:00,
2013-10-02 15:18:00,83.1,71.7,30.05,SW,225,4.9,6.7,68,0.00,,,0.00,WUHU21623XXSP,2013-10-02 20:18:00,
2013-10-02 15:23:00,83.1,72.1,30.04,SW,220,3.1,7.4,69,0.00,,,0.00,WUHU21623XXSP,2013-10-02 20:23:00,
2013-10-02 15:28:00,83.3,72.3,30.04,SW,230,2.9,7.4,69,0.00,,,0.00,WUHU21623XXSP,2013-10-02 20:28:00,
2013-10-02 15:33:00,83.5,72.1,30.05,SSW,202,4.5,7.4,68,0.00,,,0.00,WUHU21623XXSP,2013-10-02 20:33:00,
2013-10-02 15:38:00,83.8,72.4,30.05,SSW,202,4.3,6.9,68,0.00,,,0.00,WUHU21623XXSP,2013-10-02 20:38:00,
2013-10-02 15:43:00,83.8,71.9,30.05,SW,230,3.2,6.9,67,0.00,,,0.00,WUHU21623XXSP,2013-10-02 20:43:00,
2013-10-02 15:48:00,84.0,72.1,30.05,SW,225,3.8,6.7,67,0.00,,,0.00,WUHU21623XXSP,2013-10-02 20:48:00,
2013-10-02 15:53:00,84.0,72.1,30.05,SW,221,4.5,6.7,67,0.00,,,0.00,WUHU21623XXSP,2013-10-02 20:53:00,
2013-10-02 15:58:00,84.0,72.1,30.05,SSW,204,2.9,6.9,67,0.00,,,0.00,WUHU21623XXSP,2013-10-02 20:58:00,
2013-10-02 16:03:00,83.8,71.9,30.05,SW,225,5.2,7.2,67,0.00,,,0.00,WUHU21623XXSP,2013-10-02 21:03:00,
2013-10-02 16:08:00,83.7,71.8,30.05,SSW,202,1.8,7.2,67,0.00,,,0.00,WUHU21623XXSP,2013-10-02 21:08:00,
2013-10-02 16:13:00,83.5,71.6,30.05,SW,225,4.9,5.8,67,0.00,,,0.00,WUHU21623XXSP,2013-10-02 21:13:00,
2013-10-02 16:18:00,83.1,71.3,30.05,SSW,202,3.6,6.7,67,0.00,,,0.00,WUHU21623XXSP,2013-10-02 21:18:00,
2013-10-02 16:23:00,83.1,71.3,30.05,SW,225,3.4,6.7,67,0.00,,,0.00,WUHU21623XXSP,2013-10-02 21:23:00,
2013-10-02 16:28:00,82.9,71.5,30.04,SW,225,0.6,4.5,68,0.00,,,0.00,WUHU21623XXSP,2013-10-02 21:28:00,
2013-10-02 16:33:00,82.9,71.5,30.04,SW,225,4.5,5.6,68,0.00,,,0.00,WUHU21623XXSP,2013-10-02 21:33:00,
2013-10-02 16:38:00,82.8,71.4,30.04,SSW,213,4.1,5.8,68,0.00,,,0.00,WUHU21623XXSP,2013-10-02 21:38:00,
2013-10-02 16:43:00,82.6,71.2,30.04,South,185,3.0,5.8,68,0.00,,,0.00,WUHU21623XXSP,2013-10-02 21:43:00,
2013-10-02 16:48:00,82.2,70.8,30.04,South,180,4.5,5.6,68,0.00,,,0.00,WUHU21623XXSP,2013-10-02 21:48:00,
2013-10-02 16:53:00,81.7,70.8,30.04,South,180,1.9,5.6,69,0.00,,,0.00,WUHU21623XXSP,2013-10-02 21:53:00,
2013-10-02 16:58:00,81.5,71.0,30.04,South,180,0.0,5.6,70,0.00,,,0.00,WUHU21623XXSP,2013-10-02 21:58:00,
2013-10-02 17:03:00,81.1,70.6,30.04,South,177,2.0,3.1,70,0.00,,,0.00,WUHU21623XXSP,2013-10-02 22:03:00,
2013-10-02 17:08:00,81.0,70.5,30.04,South,184,2.1,5.1,70,0.00,,,0.00,WUHU21623XXSP,2013-10-02 22:08:00,
2013-10-02 17:13:00,80.8,70.3,30.04,South,183,3.1,5.1,70,0.00,,,0.00,WUHU21623XXSP,2013-10-02 22:13:00,
2013-10-02 17:18:00,80.4,69.9,30.04,South,180,1.4,4.7,70,0.00,,,0.00,WUHU21623XXSP,2013-10-02 22:18:00,
2013-10-02 17:23:00,80.4,69.9,30.04,South,180,1.1,3.8,70,0.00,,,0.00,WUHU21623XXSP,2013-10-02 22:23:00,
2013-10-02 17:28:00,80.1,69.7,30.04,South,180,2.2,3.1,70,0.00,,,0.00,WUHU21623XXSP,2013-10-02 22:28:00,
2013-10-02 17:33:00,79.7,69.7,30.04,South,180,1.0,2.7,71,0.00,,,0.00,WUHU21623XXSP,2013-10-02 22:33:00,
2013-10-02 17:38:00,79.5,69.5,30.04,South,180,1.5,2.0,71,0.00,,,0.00,WUHU21623XXSP,2013-10-02 22:38:00,
2013-10-02 17:43:00,79.3,69.3,30.04,South,180,0.9,2.2,71,0.00,,,0.00,WUHU21623XXSP,2013-10-02 22:43:00,
2013-10-02 17:48:00,79.2,69.6,30.04,South,180,1.6,2.7,72,0.00,,,0.00,WUHU21623XXSP,2013-10-02 22:48:00,
2013-10-02 17:53:00,79.0,69.4,30.04,SSW,195,2.4,4.0,72,0.00,,,0.00,WUHU21623XXSP,2013-10-02 22:53:00,
2013-10-02 17:58:00,79.0,69.4,30.04,South,180,1.0,4.0,72,0.00,,,0.00,WUHU21623XXSP,2013-10-02 22:58:00,
2013-10-02 18:03:00,78.6,69.0,30.04,South,180,0.2,4.0,72,0.00,,,0.00,WUHU21623XXSP,2013-10-02 23:03:00,
2013-10-02 18:08:00,78.4,69.2,30.04,SW,225,1.3,1.8,73,0.00,,,0.00,WUHU21623XXSP,2013-10-02 23:08:00,
2013-10-02 18:13:00,78.1,68.9,30.05,SW,225,0.9,1.8,73,0.00,,,0.00,WUHU21623XXSP,2013-10-02 23:13:00,
2013-10-02 18:18:00,77.9,68.7,30.05,SW,225,0.7,1.3,73,0.00,,,0.00,WUHU21623XXSP,2013-10-02 23:18:00,
2013-10-02 18:23:00,77.5,68.7,30.05,SW,225,0.0,1.3,74,0.00,,,0.00,WUHU21623XXSP,2013-10-02 23:23:00,
2013-10-02 18:28:00,77.2,68.4,30.05,SW,225,0.0,0.7,74,0.00,,,0.00,WUHU21623XXSP,2013-10-02 23:28:00,
2013-10-02 18:33:00,76.8,68.1,30.05,SW,225,0.0,0.0,74,0.00,,,0.00,WUHU21623XXSP,2013-10-02 23:33:00,
2013-10-02 18:38:00,76.6,68.2,30.05,SW,225,0.0,0.0,75,0.00,,,0.00,WUHU21623XXSP,2013-10-02 23:38:00,
2013-10-02 18:43:00,76.1,67.8,30.05,SW,225,0.0,0.0,75,0.00,,,0.00,WUHU21623XXSP,2013-10-02 23:43:00,
2013-10-02 18:48:00,75.7,67.7,30.04,SSW,202,0.0,0.0,76,0.00,,,0.00,WUHU21623XXSP,2013-10-02 23:48:00,
2013-10-02 18:49:00,75.7,67.7,30.04,South,180,0.0,0.0,76,0.00,,,0.00,WUHU21623XXSP,2013-10-02 23:49:00,
2013-10-02 18:54:00,75.4,67.5,30.05,South,180,0.0,0.0,76,0.00,,,0.00,WUHU21623XXSP,2013-10-02 23:54:00,
2013-10-02 18:59:00,75.0,67.1,30.04,NNW,337,2.7,3.1,76,0.00,,,0.00,WUHU21623XXSP,2013-10-02 23:59:00,
2013-10-02 19:04:00,74.8,67.2,30.05,North,0,3.1,5.4,77,0.00,,,0.00,WUHU21623XXSP,2013-10-03 00:04:00,
2013-10-02 19:09:00,74.5,67.3,30.05,North,0,4.3,5.4,78,0.00,,,0.00,WUHU21623XXSP,2013-10-03 00:09:00,
2013-10-02 19:15:00,74.1,66.9,30.05,North,0,0.7,4.7,78,0.00,,,0.00,WUHU21623XXSP,2013-10-03 00:15:00,
2013-10-02 19:20:00,73.9,66.7,30.04,North,0,0.0,3.4,78,0.00,,,0.00,WUHU21623XXSP,2013-10-03 00:20:00,
2013-10-02 19:25:00,73.9,66.7,30.04,North,0,0.0,0.0,78,0.00,,,0.00,WUHU21623XXSP,2013-10-03 00:25:00,
2013-10-02 19:30:00,73.6,66.4,30.05,North,0,0.0,0.0,78,0.00,,,0.00,WUHU21623XXSP,2013-10-03 00:30:00,
2013-10-02 19:35:00,73.6,66.4,30.04,North,0,0.0,0.0,78,0.00,,,0.00,WUHU21623XXSP,2013-10-03 00:35:00,
2013-10-02 19:40:00,73.2,66.0,30.05,North,0,0.0,0.0,78,0.00,,,0.00,WUHU21623XXSP,2013-10-03 00:40:00,
2013-10-02 19:45:00,73.2,66.0,30.05,NNE,22,1.6,2.9,78,0.00,,,0.00,WUHU21623XXSP,2013-10-03 00:45:00,
2013-10-02 19:50:00,73.0,65.8,30.05,NNE,22,0.2,2.9,78,0.00,,,0.00,WUHU21623XXSP,2013-10-03 00:50:00,
2013-10-02 19:55:00,73.0,65.8,30.05,NNE,22,0.0,1.1,78,0.00,,,0.00,WUHU21623XXSP,2013-10-03 00:55:00,
2013-10-02 20:00:00,72.9,65.8,30.05,NNE,22,0.0,0.9,78,0.00,,,0.00,WUHU21623XXSP,2013-10-03 01:00:00,
2013-10-02 20:05:00,72.9,65.8,30.05,NNE,22,0.6,0.9,78,0.00,,,0.00,WUHU21623XXSP,2013-10-03 01:05:00,
2013-10-02 20:10:00,72.7,65.6,30.06,NNE,22,0.0,0.9,78,0.00,,,0.00,WUHU21623XXSP,2013-10-03 01:10:00,
2013-10-02 20:15:00,72.7,65.6,30.06,NNE,22,0.0,0.7,78,0.00,,,0.00,WUHU21623XXSP,2013-10-03 01:15:00,
2013-10-02 20:20:00,72.5,65.4,30.06,NNE,22,0.0,0.7,78,0.00,,,0.00,WUHU21623XXSP,2013-10-03 01:20:00,
2013-10-02 20:25:00,72.5,65.4,30.06,NNE,22,0.0,0.0,78,0.00,,,0.00,WUHU21623XXSP,2013-10-03 01:25:00,
2013-10-02 20:30:00,72.3,65.2,30.06,NNE,22,0.0,0.0,78,0.00,,,0.00,WUHU21623XXSP,2013-10-03 01:30:00,
2013-10-02 20:35:00,72.3,65.2,30.06,NNE,22,0.0,0.0,78,0.00,,,0.00,WUHU21623XXSP,2013-10-03 01:35:00,
2013-10-02 20:40:00,72.1,65.0,30.06,NNE,22,0.0,0.0,78,0.00,,,0.00,WUHU21623XXSP,2013-10-03 01:40:00,
2013-10-02 20:45:00,72.1,65.0,30.06,NNE,22,0.0,0.0,78,0.00,,,0.00,WUHU21623XXSP,2013-10-03 01:45:00,
2013-10-02 20:50:00,72.1,65.0,30.06,NNE,22,0.0,0.0,78,0.00,,,0.00,WUHU21623XXSP,2013-10-03 01:50:00,
2013-10-02 20:55:00,72.0,64.9,30.06,SE,135,0.0,0.0,78,0.00,,,0.00,WUHU21623XXSP,2013-10-03 01:55:00,
2013-10-02 21:00:00,71.8,64.7,30.07,SE,135,0.8,0.9,78,0.00,,,0.00,WUHU21623XXSP,2013-10-03 02:00:00,
2013-10-02 21:05:00,71.8,64.7,30.06,ESE,112,0.0,0.9,78,0.00,,,0.00,WUHU21623XXSP,2013-10-03 02:05:00,
2013-10-02 21:10:00,71.8,64.7,30.06,ESE,112,0.0,0.0,78,0.00,,,0.00,WUHU21623XXSP,2013-10-03 02:10:00,
2013-10-02 21:15:00,71.8,64.7,30.06,SE,135,0.0,0.0,78,0.00,,,0.00,WUHU21623XXSP,2013-10-03 02:15:00,
2013-10-02 21:20:00,71.6,64.5,30.07,SE,135,0.0,0.0,78,0.00,,,0.00,WUHU21623XXSP,2013-10-03 02:20:00,
2013-10-02 21:25:00,71.4,64.3,30.06,SE,135,0.0,0.0,78,0.00,,,0.00,WUHU21623XXSP,2013-10-03 02:25:00,
2013-10-02 21:30:00,71.4,64.3,30.06,SE,135,0.0,0.0,78,0.00,,,0.00,WUHU21623XXSP,2013-10-03 02:30:00,
2013-10-02 21:35:00,71.4,64.3,30.06,SE,135,0.0,0.0,78,0.00,,,0.00,WUHU21623XXSP,2013-10-03 02:35:00,
2013-10-02 21:40:00,71.4,64.3,30.07,SE,135,0.0,0.0,78,0.00,,,0.00,WUHU21623XXSP,2013-10-03 02:40:00,
2013-10-02 21:45:00,71.4,64.3,30.07,SE,135,0.0,0.0,78,0.00,,,0.00,WUHU21623XXSP,2013-10-03 02:45:00,
2013-10-02 21:50:00,71.4,64.3,30.06,SSE,157,0.9,0.9,78,0.00,,,0.00,WUHU21623XXSP,2013-10-03 02:50:00,
2013-10-02 21:55:00,71.4,64.3,30.07,SSE,157,0.0,0.9,78,0.00,,,0.00,WUHU21623XXSP,2013-10-03 02:55:00,
2013-10-02 22:00:00,71.4,64.3,30.07,SSE,157,0.0,0.9,78,0.00,,,0.00,WUHU21623XXSP,2013-10-03 03:00:00,
2013-10-02 22:05:00,71.4,64.3,30.07,SSE,157,0.0,0.0,78,0.00,,,0.00,WUHU21623XXSP,2013-10-03 03:05:00,
2013-10-02 22:10:00,71.4,63.9,30.07,SSE,157,0.0,0.0,77,0.00,,,0.00,WUHU21623XXSP,2013-10-03 03:10:00,
2013-10-02 22:15:00,71.4,63.9,30.06,SSE,157,1.1,2.0,77,0.00,,,0.00,WUHU21623XXSP,2013-10-03 03:15:00,
2013-10-02 22:20:00,71.4,63.9,30.06,SSE,157,0.0,2.0,77,0.00,,,0.00,WUHU21623XXSP,2013-10-03 03:20:00,
2013-10-02 22:25:00,71.6,64.1,30.06,SSE,157,0.4,2.0,77,0.00,,,0.00,WUHU21623XXSP,2013-10-03 03:25:00,
2013-10-02 22:30:00,71.6,64.1,30.06,South,180,1.6,2.0,77,0.00,,,0.00,WUHU21623XXSP,2013-10-03 03:30:00,
2013-10-02 22:35:00,71.8,64.3,30.06,SSE,157,0.0,3.1,77,0.00,,,0.00,WUHU21623XXSP,2013-10-03 03:35:00,
2013-10-02 22:40:00,71.8,64.3,30.06,SE,137,0.9,3.4,77,0.00,,,0.00,WUHU21623XXSP,2013-10-03 03:40:00,
2013-10-02 22:45:00,71.8,64.3,30.06,South,180,0.9,3.4,77,0.00,,,0.00,WUHU21623XXSP,2013-10-03 03:45:00,
2013-10-02 22:50:00,72.0,64.5,30.06,South,180,1.8,4.9,77,0.00,,,0.00,WUHU21623XXSP,2013-10-03 03:50:00,
2013-10-02 22:55:00,72.0,64.5,30.06,South,173,1.0,4.9,77,0.00,,,0.00,WUHU21623XXSP,2013-10-03 03:55:00,
2013-10-02 23:00:00,72.0,64.5,30.06,SSE,161,1.6,3.1,77,0.00,,,0.00,WUHU21623XXSP,2013-10-03 04:00:00,
2013-10-02 23:01:00,72.0,64.5,30.06,SSE,168,1.4,3.1,77,0.00,,,0.00,WUHU21623XXSP,2013-10-03 04:01:00,
2013-10-02 23:03:00,72.1,64.6,30.06,South,179,1.5,3.1,77,0.00,,,0.00,WUHU21623XXSP,2013-10-03 04:03:00,
2013-10-02 23:08:00,72.0,64.5,30.06,South,180,3.4,4.3,77,0.00,,,0.00,WUHU21623XXSP,2013-10-03 04:08:00,
2013-10-02 23:13:00,72.0,64.5,30.06,South,180,2.0,4.9,77,0.00,,,0.00,WUHU21623XXSP,2013-10-03 04:13:00,
2013-10-02 23:18:00,72.0,64.5,30.06,South,180,2.9,4.9,77,0.00,,,0.00,WUHU21623XXSP,2013-10-03 04:18:00,
2013-10-02 23:23:00,71.8,64.3,30.06,South,176,2.5,4.9,77,0.00,,,0.00,WUHU21623XXSP,2013-10-03 04:23:00,
2013-10-02 23:28:00,71.8,64.3,30.06,SSE,168,1.2,4.7,77,0.00,,,0.00,WUHU21623XXSP,2013-10-03 04:28:00,
2013-10-02 23:33:00,71.8,64.3,30.06,South,172,2.1,3.8,77,0.00,,,0.00,WUHU21623XXSP,2013-10-03 04:33:00,
2013-10-02 23:38:00,71.8,64.3,30.06,South,177,2.2,3.8,77,0.00,,,0.00,WUHU21623XXSP,2013-10-03 04:38:00,
2013-10-02 23:43:00,71.8,64.3,30.06,SSE,161,2.3,3.8,77,0.00,,,0.00,WUHU21623XXSP,2013-10-03 04:43:00,
2013-10-02 23:48:00,71.8,64.3,30.05,South,172,1.5,4.7,77,0.00,,,0.00,WUHU21623XXSP,2013-10-03 04:48:00,
2013-10-02 23:53:00,71.8,64.3,30.05,South,180,1.3,4.7,77,0.00,,,0.00,WUHU21623XXSP,2013-10-03 04:53:00,
2013-10-02 23:58:00,71.8,64.3,30.05,South,180,1.4,5.1,77,0.00,,,0.00,WUHU21623XXSP,2013-10-03 04:58:00,